Time;durP1;ratioP1;P1;durP2;ratioP2;P2;SDS_P1;SDS_P2;PMS_P1;PMS_P2;Temp;Humidity;BMP_temperature;BMP_pressure;BME280_temperature;BME280_humidity;BME280_pressure;Samples;Min_cycle;Max_cycle;Signal;HPM_P1;HPM_P2
2024/04/09 00:02:20;;;;;;;7.57;5.45;;;20.50;74.70;;;;;;5504031;26;20012;-38
2024/04/09 00:04:46;;;;;;;7.20;5.22;;;20.50;74.70;;;;;;5453590;26;19994;-37
2024/04/09 00:07:11;;;;;;;7.28;5.22;;;20.50;74.70;;;;;;5457554;26;20010;-37
2024/04/09 00:09:43;;;;;;;6.07;4.90;;;20.40;74.70;;;;;;5470452;26;20044;-37
2024/04/09 00:12:11;;;;;;;6.97;5.32;;;20.40;74.80;;;;;;5460590;26;20063;-39
2024/04/09 00:14:37;;;;;;;6.00;4.80;;;20.40;74.80;;;;;;5488330;26;20001;-39
2024/04/09 00:17:06;;;;;;;7.28;5.22;;;20.40;74.80;;;;;;5494424;26;20493;-38
2024/04/09 00:19:32;;;;;;;6.60;5.05;;;20.40;74.90;;;;;;5494027;26;19998;-35
2024/04/09 00:21:59;;;;;;;8.55;4.93;;;20.30;74.80;;;;;;5486039;26;20002;-36
2024/04/09 00:24:25;;;;;;;6.43;4.68;;;20.30;74.80;;;;;;5486174;26;20015;-33
2024/04/09 00:26:51;;;;;;;6.07;4.70;;;20.30;74.90;;;;;;5435990;26;20010;-39
2024/04/09 00:29:17;;;;;;;5.82;4.45;;;20.30;74.90;;;;;;5454605;26;20012;-35
2024/04/09 00:31:43;;;;;;;6.35;4.80;;;20.30;74.90;;;;;;5476403;26;20030;-40
2024/04/09 00:34:10;;;;;;;6.32;4.60;;;20.20;74.90;;;;;;5463493;26;20013;-39
2024/04/09 00:36:37;;;;;;;5.45;4.43;;;20.20;75.00;;;;;;5485295;26;20030;-37
2024/04/09 00:39:10;;;;;;;5.78;4.15;;;20.20;75.00;;;;;;5431333;26;20067;-35
2024/04/09 00:41:36;;;;;;;5.53;4.22;;;20.20;75.00;;;;;;5445188;26;20009;-38
2024/04/09 00:44:02;;;;;;;5.78;4.40;;;20.20;75.00;;;;;;5485330;26;19990;-40
2024/04/09 00:46:28;;;;;;;5.80;4.47;;;20.20;75.10;;;;;;5480680;26;20010;-39
2024/04/09 00:48:54;;;;;;;6.47;4.10;;;20.10;75.00;;;;;;5474179;26;20372;-37
2024/04/09 00:51:19;;;;;;;6.10;4.35;;;20.10;75.10;;;;;;5417830;26;20465;-36
2024/04/09 00:53:48;;;;;;;5.72;4.10;;;20.10;75.10;;;;;;5485643;26;20003;-36
2024/04/09 00:56:15;;;;;;;5.20;4.15;;;20.10;75.10;;;;;;5463429;26;20116;-38
2024/04/09 00:58:44;;;;;;;5.28;3.95;;;20.10;75.20;;;;;;5458382;26;20002;-35
2024/04/09 01:01:13;;;;;;;6.72;4.47;;;20.00;75.10;;;;;;5439932;26;20010;-38
2024/04/09 01:03:39;;;;;;;7.97;4.60;;;20.00;75.20;;;;;;5479896;26;19998;-38
2024/04/09 01:06:09;;;;;;;5.43;3.88;;;20.00;75.10;;;;;;5490421;26;20010;-39
2024/04/09 01:08:35;;;;;;;6.85;4.45;;;20.00;75.20;;;;;;5487502;26;20010;-37
2024/04/09 01:11:00;;;;;;;5.40;4.25;;;20.00;75.20;;;;;;5491569;26;20070;-38
2024/04/09 01:13:26;;;;;;;6.50;4.72;;;20.00;75.20;;;;;;5489128;26;20013;-38
2024/04/09 01:15:52;;;;;;;5.57;3.92;;;19.90;75.10;;;;;;5492952;26;20010;-38
2024/04/09 01:18:18;;;;;;;6.30;3.88;;;19.90;75.10;;;;;;5477847;26;19995;-37
2024/04/09 01:20:43;;;;;;;5.10;3.85;;;19.90;75.20;;;;;;5478847;26;19994;-36
2024/04/09 01:23:10;;;;;;;5.30;4.00;;;19.90;75.20;;;;;;5487065;26;20009;-40
2024/04/09 01:25:36;;;;;;;5.88;4.13;;;19.90;75.20;;;;;;5488708;26;20001;-38
2024/04/09 01:28:04;;;;;;;5.38;4.07;;;19.90;75.20;;;;;;5484735;26;20002;-38
2024/04/09 01:30:30;;;;;;;7.63;4.00;;;19.90;75.20;;;;;;5476926;26;19998;-35
2024/04/09 01:32:56;;;;;;;5.60;4.03;;;19.80;75.20;;;;;;5488810;26;19999;-38
2024/04/09 01:35:23;;;;;;;5.88;4.07;;;19.80;75.20;;;;;;5478673;26;20013;-36
2024/04/09 01:37:49;;;;;;;6.25;3.80;;;19.80;75.30;;;;;;5488276;26;20018;-37
2024/04/09 01:40:15;;;;;;;4.70;3.80;;;19.80;75.30;;;;;;5472516;26;20014;-35
2024/04/09 01:42:41;;;;;;;5.38;4.10;;;19.80;75.30;;;;;;5479816;26;20003;-38
2024/04/09 01:45:07;;;;;;;5.10;3.45;;;19.70;75.30;;;;;;5468739;26;20003;-36
2024/04/09 01:47:33;;;;;;;5.50;4.20;;;19.70;75.30;;;;;;5473313;26;20006;-39
2024/04/09 01:49:59;;;;;;;4.97;4.05;;;19.70;75.40;;;;;;5485931;26;20334;-37
2024/04/09 01:52:25;;;;;;;5.88;4.07;;;19.70;75.40;;;;;;5471943;26;20003;-36
2024/04/09 01:54:52;;;;;;;4.82;3.60;;;19.70;75.30;;;;;;5478655;26;20030;-37
2024/04/09 01:57:17;;;;;;;5.30;3.58;;;19.60;75.30;;;;;;5477512;26;20041;-39
2024/04/09 01:59:43;;;;;;;4.70;3.72;;;19.70;75.40;;;;;;5490298;26;20002;-39
2024/04/09 02:02:10;;;;;;;4.90;3.50;;;19.60;75.40;;;;;;5482917;26;20010;-39
2024/04/09 02:04:36;;;;;;;4.82;4.05;;;19.60;75.40;;;;;;5485378;26;20002;-37
2024/04/09 02:07:02;;;;;;;5.88;4.20;;;19.60;75.40;;;;;;5486126;26;20040;-37
2024/04/09 02:09:28;;;;;;;4.95;3.83;;;19.60;75.40;;;;;;5475725;26;20620;-37
2024/04/09 02:11:54;;;;;;;5.60;3.67;;;19.60;75.50;;;;;;5488930;26;20002;-37
2024/04/09 02:14:20;;;;;;;5.38;3.38;;;19.50;75.40;;;;;;5487327;26;20452;-36
2024/04/09 02:16:46;;;;;;;5.50;3.72;;;19.60;75.50;;;;;;5463931;26;20011;-39
2024/04/09 02:19:12;;;;;;;4.63;3.40;;;19.50;75.40;;;;;;5478123;26;19998;-35
2024/04/09 02:21:38;;;;;;;5.35;3.83;;;19.50;75.50;;;;;;5489497;26;20359;-39
2024/04/09 02:24:05;;;;;;;5.47;3.60;;;19.50;75.40;;;;;;5490270;26;20086;-35
2024/04/09 02:26:31;;;;;;;4.88;3.53;;;19.50;75.40;;;;;;5488504;26;20027;-39
2024/04/09 02:28:57;;;;;;;4.25;3.30;;;19.50;75.40;;;;;;5467896;26;20006;-34
2024/04/09 02:31:23;;;;;;;6.50;4.05;;;19.50;75.50;;;;;;5476269;26;20038;-36
2024/04/09 02:33:50;;;;;;;4.53;3.40;;;19.50;75.40;;;;;;5479684;26;20005;-39
2024/04/09 02:36:16;;;;;;;4.65;3.30;;;19.50;75.50;;;;;;5483132;26;19998;-40
2024/04/09 02:38:43;;;;;;;6.15;3.47;;;19.50;75.50;;;;;;5485888;26;20010;-39
2024/04/09 02:41:13;;;;;;;4.72;3.20;;;19.40;75.40;;;;;;5479266;26;20028;-39
2024/04/09 02:43:39;;;;;;;3.63;2.90;;;19.40;75.50;;;;;;5480030;26;19994;-37
2024/04/09 02:46:05;;;;;;;3.92;2.90;;;19.40;75.50;;;;;;5471122;26;20002;-40
2024/04/09 02:48:30;;;;;;;4.97;3.20;;;19.40;75.50;;;;;;5475172;26;20086;-37
2024/04/09 02:50:58;;;;;;;4.13;2.92;;;19.30;75.40;;;;;;5483722;26;20003;-38
2024/04/09 02:53:25;;;;;;;4.47;2.85;;;19.40;76.10;;;;;;5482407;26;20006;-39
2024/04/09 02:56:08;;;;;;;3.58;2.88;;;19.30;75.40;;;;;;5479950;26;20009;-38
2024/04/09 02:58:34;;;;;;;4.28;2.90;;;19.40;75.50;;;;;;5477470;26;20040;-37
2024/04/09 03:01:08;;;;;;;3.42;2.47;;;19.30;75.40;;;;;;5484901;26;20034;-38
2024/04/09 03:03:35;;;;;;;4.20;2.85;;;19.30;75.40;;;;;;5486062;26;20343;-34
2024/04/09 03:06:05;;;;;;;3.47;2.30;;;19.30;75.40;;;;;;5473698;26;20014;-38
2024/04/09 03:08:31;;;;;;;3.92;2.80;;;19.30;75.40;;;;;;5489284;26;20013;-35
2024/04/09 03:10:56;;;;;;;3.45;2.45;;;19.20;75.40;;;;;;5485206;26;20009;-34
2024/04/09 03:13:22;;;;;;;4.63;2.47;;;19.20;75.40;;;;;;5484817;26;20013;-38
2024/04/09 03:15:49;;;;;;;3.40;2.38;;;19.30;75.50;;;;;;5486416;26;20026;-38
2024/04/09 03:18:15;;;;;;;4.20;2.60;;;19.20;75.50;;;;;;5490932;26;19998;-36
2024/04/09 03:20:41;;;;;;;4.40;2.58;;;19.20;75.50;;;;;;5489126;26;20965;-38
2024/04/09 03:23:07;;;;;;;3.63;2.47;;;19.20;75.50;;;;;;5491688;26;19994;-38
2024/04/09 03:25:33;;;;;;;2.75;2.30;;;19.20;75.50;;;;;;5483091;26;20579;-40
2024/04/09 03:27:58;;;;;;;2.80;2.10;;;19.20;75.40;;;;;;5482456;26;20013;-36
2024/04/09 03:30:24;;;;;;;3.70;2.40;;;19.20;75.40;;;;;;5485684;26;20055;-39
2024/04/09 03:32:52;;;;;;;2.97;2.10;;;19.20;75.40;;;;;;5480662;26;20360;-33
2024/04/09 03:35:17;;;;;;;3.20;2.17;;;19.20;75.50;;;;;;5490089;26;19994;-38
2024/04/09 03:37:43;;;;;;;2.67;2.08;;;19.20;75.50;;;;;;5483697;26;20017;-37
2024/04/09 03:40:09;;;;;;;2.97;2.00;;;19.10;75.50;;;;;;5473665;26;20442;-39
2024/04/09 03:42:35;;;;;;;3.20;2.00;;;19.20;75.50;;;;;;5481723;26;20002;-39
2024/04/09 03:45:01;;;;;;;3.38;2.10;;;19.10;75.50;;;;;;5498913;26;20002;-34
2024/04/09 03:47:27;;;;;;;2.40;2.08;;;19.10;75.50;;;;;;5475580;26;20064;-34
2024/04/09 03:49:54;;;;;;;2.08;1.77;;;19.10;75.50;;;;;;5480985;26;19994;-38
2024/04/09 03:52:20;;;;;;;2.80;2.03;;;19.10;75.50;;;;;;5462774;26;19995;-39
2024/04/09 03:54:46;;;;;;;2.30;1.80;;;19.10;75.50;;;;;;5484239;26;20334;-38
2024/04/09 03:57:12;;;;;;;3.20;1.90;;;19.10;75.50;;;;;;5484414;26;19999;-38
2024/04/09 03:59:38;;;;;;;2.08;1.85;;;19.00;75.50;;;;;;5492148;26;20037;-35
2024/04/09 04:02:04;;;;;;;3.42;1.95;;;19.00;75.50;;;;;;5489965;26;19998;-39
2024/04/09 04:04:29;;;;;;;2.70;2.00;;;19.00;75.50;;;;;;5490537;26;20013;-38
2024/04/09 04:06:55;;;;;;;3.88;2.20;;;19.00;75.60;;;;;;5488581;26;20059;-36
2024/04/09 04:09:24;;;;;;;4.20;2.22;;;19.00;75.60;;;;;;5478538;26;19998;-35
2024/04/09 04:11:50;;;;;;;3.08;2.08;;;19.00;75.60;;;;;;5486232;26;20031;-38
2024/04/09 04:14:16;;;;;;;2.90;2.00;;;19.00;75.60;;;;;;5475302;26;20016;-38
2024/04/09 04:16:42;;;;;;;2.83;2.05;;;19.00;75.60;;;;;;5481801;26;20048;-38
2024/04/09 04:19:08;;;;;;;3.40;2.20;;;19.00;75.70;;;;;;5482225;26;20010;-36
2024/04/09 04:21:34;;;;;;;3.05;2.30;;;19.00;75.70;;;;;;5475082;26;20040;-40
2024/04/09 04:23:59;;;;;;;3.13;2.17;;;18.90;75.60;;;;;;5487416;26;20013;-35
2024/04/09 04:26:26;;;;;;;2.88;2.20;;;18.90;75.60;;;;;;5491304;26;20060;-40
2024/04/09 04:28:53;;;;;;;3.15;2.40;;;18.90;75.60;;;;;;5478914;26;19998;-36
2024/04/09 04:31:23;;;;;;;3.78;2.63;;;18.90;75.60;;;;;;5488087;26;20095;-37
2024/04/09 04:33:50;;;;;;;4.25;2.63;;;18.90;75.60;;;;;;5484861;26;19995;-34
2024/04/09 04:36:16;;;;;;;3.25;2.45;;;18.90;75.70;;;;;;5491754;26;20002;-37
2024/04/09 04:38:42;;;;;;;4.53;2.75;;;18.90;75.70;;;;;;5494586;26;19991;-37
2024/04/09 04:41:09;;;;;;;3.60;2.72;;;18.90;75.70;;;;;;5486169;26;20006;-37
2024/04/09 04:43:36;;;;;;;4.00;2.70;;;18.80;75.70;;;;;;5486444;26;19994;-41
2024/04/09 04:46:04;;;;;;;4.13;3.10;;;18.90;75.70;;;;;;5489873;26;19994;-39
2024/04/09 04:48:30;;;;;;;4.40;2.90;;;18.90;75.70;;;;;;5490773;26;20457;-37
2024/04/09 04:50:56;;;;;;;4.55;3.40;;;18.80;76.30;;;;;;5485440;26;19998;-39
2024/04/09 04:53:23;;;;;;;4.47;3.45;;;18.80;75.70;;;;;;5492198;26;20002;-37
2024/04/09 04:55:49;;;;;;;4.07;3.25;;;18.80;75.70;;;;;;5495065;26;20002;-39
2024/04/09 04:58:16;;;;;;;4.32;3.35;;;18.80;75.70;;;;;;5468108;26;19999;-37
2024/04/09 05:00:41;;;;;;;5.70;4.03;;;18.80;75.80;;;;;;5483334;26;20022;-37
2024/04/09 05:03:09;;;;;;;4.43;3.50;;;18.80;75.80;;;;;;5493744;26;20077;-38
2024/04/09 05:05:35;;;;;;;4.72;3.88;;;18.80;75.90;;;;;;5483298;26;20007;-39
2024/04/09 05:08:01;;;;;;;5.32;4.10;;;18.70;75.80;;;;;;5485646;26;20008;-41
2024/04/09 05:10:27;;;;;;;5.97;4.25;;;18.70;75.80;;;;;;5478585;25;19998;-39
2024/04/09 05:12:54;;;;;;;4.97;3.88;;;18.70;75.90;;;;;;5485608;26;20639;-37
2024/04/09 05:15:21;;;;;;;5.82;4.03;;;18.70;75.90;;;;;;5479459;26;20029;-38
2024/04/09 05:17:48;;;;;;;6.90;4.97;;;18.70;75.90;;;;;;5483542;26;20109;-36
2024/04/09 05:20:16;;;;;;;5.45;4.03;;;18.70;76.50;;;;;;5479998;26;19994;-37
2024/04/09 05:22:50;;;;;;;5.45;4.30;;;18.70;75.90;;;;;;5457893;26;20002;-37
2024/04/09 05:25:17;;;;;;;5.45;4.15;;;18.70;75.90;;;;;;5471464;26;20010;-37
2024/04/09 05:27:45;;;;;;;5.25;4.18;;;18.60;75.90;;;;;;5469610;26;20561;-34
2024/04/09 05:30:11;;;;;;;4.97;4.32;;;18.70;76.00;;;;;;5490422;26;19998;-36
2024/04/09 05:32:39;;;;;;;5.50;4.35;;;18.60;75.90;;;;;;5475862;26;20006;-38
2024/04/09 05:35:06;;;;;;;5.70;4.90;;;18.60;76.00;;;;;;5480843;26;20006;-38
2024/04/09 05:37:32;;;;;;;5.40;4.43;;;18.60;76.00;;;;;;5483455;26;20092;-39
2024/04/09 05:39:58;;;;;;;5.65;4.65;;;18.60;76.00;;;;;;5490112;26;19994;-37
2024/04/09 05:42:24;;;;;;;6.05;4.85;;;18.50;76.00;;;;;;5485782;26;19999;-38
2024/04/09 05:44:50;;;;;;;6.20;5.20;;;18.50;76.00;;;;;;5487630;26;19994;-38
2024/04/09 05:47:17;;;;;;;5.93;4.90;;;18.60;76.00;;;;;;5489620;26;20012;-36
2024/04/09 05:49:44;;;;;;;6.53;5.57;;;18.50;76.70;;;;;;5474936;26;19998;-34
2024/04/09 05:52:10;;;;;;;7.75;5.03;;;18.50;76.10;;;;;;5485726;26;19998;-37
2024/04/09 05:54:45;;;;;;;5.95;4.82;;;18.50;76.00;;;;;;5491131;26;20012;-39
2024/04/09 05:57:11;;;;;;;5.88;5.15;;;18.50;76.10;;;;;;5489803;26;19994;-34
2024/04/09 05:59:37;;;;;;;6.55;5.15;;;18.50;76.10;;;;;;5485737;26;20003;-38
2024/04/09 06:02:03;;;;;;;5.72;4.90;;;18.50;76.10;;;;;;5489001;26;20043;-38
2024/04/09 06:04:30;;;;;;;5.70;4.95;;;18.50;76.80;;;;;;5461978;26;20075;-39
2024/04/09 06:06:56;;;;;;;5.78;4.85;;;18.40;76.10;;;;;;5472454;26;19994;-36
2024/04/09 06:09:22;;;;;;;5.60;4.88;;;18.40;76.10;;;;;;5452136;26;20009;-36
2024/04/09 06:11:47;;;;;;;5.28;4.50;;;18.40;76.20;;;;;;5477537;26;19995;-33
2024/04/09 06:14:15;;;;;;;5.30;4.53;;;18.40;76.20;;;;;;5477892;26;20008;-37
2024/04/09 06:16:40;;;;;;;5.90;4.60;;;18.40;76.20;;;;;;5435774;26;20768;-37
2024/04/09 06:19:06;;;;;;;5.78;4.90;;;18.40;76.20;;;;;;5462327;26;20014;-33
2024/04/09 06:21:32;;;;;;;5.38;3.95;;;18.40;76.20;;;;;;5487242;26;20005;-38
2024/04/09 06:23:57;;;;;;;5.15;4.15;;;18.40;76.20;;;;;;5491944;26;19997;-37
2024/04/09 06:26:23;;;;;;;4.93;4.35;;;18.30;76.10;;;;;;5493584;26;19994;-39
2024/04/09 06:28:51;;;;;;;4.82;3.88;;;18.30;76.10;;;;;;5487886;26;20047;-36
2024/04/09 06:31:17;;;;;;;4.93;3.95;;;18.30;76.20;;;;;;5479744;26;20013;-37
2024/04/09 06:33:43;;;;;;;4.80;4.10;;;18.30;76.20;;;;;;5473115;26;19999;-36
2024/04/09 06:36:09;;;;;;;5.07;4.07;;;18.30;76.20;;;;;;5481774;26;19998;-37
2024/04/09 06:38:35;;;;;;;4.35;3.40;;;18.30;76.20;;;;;;5458996;26;20013;-38
2024/04/09 06:41:00;;;;;;;5.32;4.13;;;18.30;76.20;;;;;;5489518;26;20016;-38
2024/04/09 06:43:26;;;;;;;4.93;3.60;;;18.30;76.20;;;;;;5479900;26;20074;-38
2024/04/09 06:45:52;;;;;;;4.55;3.55;;;18.30;76.20;;;;;;5474825;26;20017;-39
2024/04/09 06:48:17;;;;;;;4.88;3.63;;;18.30;76.20;;;;;;5489833;26;19995;-42
2024/04/09 06:50:43;;;;;;;4.80;3.55;;;18.30;76.30;;;;;;5485970;26;20357;-39
2024/04/09 06:53:09;;;;;;;4.60;3.88;;;18.30;76.30;;;;;;5460507;26;20002;-40
2024/04/09 06:55:35;;;;;;;3.90;3.30;;;18.30;76.30;;;;;;5483519;26;20008;-38
2024/04/09 06:58:00;;;;;;;4.28;2.92;;;18.20;76.30;;;;;;5468752;26;20003;-40
2024/04/09 07:00:26;;;;;;;4.55;3.30;;;18.20;76.30;;;;;;5482446;26;19995;-39
2024/04/09 07:02:52;;;;;;;4.53;2.90;;;18.20;76.30;;;;;;5472972;26;20019;-41
2024/04/09 07:05:19;;;;;;;3.60;2.97;;;18.20;76.20;;;;;;5456701;26;20017;-41
2024/04/09 07:07:44;;;;;;;3.20;2.60;;;18.20;76.20;;;;;;5490580;26;19998;-38
2024/04/09 07:10:12;;;;;;;3.53;2.63;;;18.20;76.20;;;;;;5486589;26;20513;-40
2024/04/09 07:12:38;;;;;;;4.63;2.60;;;18.20;76.20;;;;;;5455947;26;20013;-41
2024/04/09 07:15:04;;;;;;;3.28;2.25;;;18.20;76.20;;;;;;5482967;26;20006;-40
2024/04/09 07:17:30;;;;;;;2.95;2.20;;;18.20;76.20;;;;;;5490606;26;19998;-40
2024/04/09 07:19:58;;;;;;;5.10;2.42;;;18.20;76.20;;;;;;5481036;26;20009;-40
2024/04/09 07:22:25;;;;;;;2.60;2.03;;;18.20;76.20;;;;;;5487694;26;20010;-41
2024/04/09 07:24:51;;;;;;;2.33;1.73;;;18.20;76.20;;;;;;5483074;26;20006;-41
2024/04/09 07:27:17;;;;;;;2.58;1.90;;;18.20;76.20;;;;;;5465941;26;19998;-41
2024/04/09 07:29:43;;;;;;;3.20;1.73;;;18.10;76.10;;;;;;5470645;26;20001;-40
2024/04/09 07:32:08;;;;;;;3.22;2.05;;;18.20;76.20;;;;;;5488578;26;20042;-39
2024/04/09 07:34:34;;;;;;;2.72;1.60;;;18.20;76.10;;;;;;5472043;26;20016;-39
2024/04/09 07:37:00;;;;;;;2.60;1.60;;;18.20;76.10;;;;;;5481490;26;20002;-41
2024/04/09 07:39:26;;;;;;;1.85;1.67;;;18.10;76.10;;;;;;5480635;26;20011;-41
2024/04/09 07:41:52;;;;;;;2.35;1.63;;;18.10;76.00;;;;;;5472013;26;20075;-41
2024/04/09 07:44:18;;;;;;;3.08;1.55;;;18.10;76.00;;;;;;5475346;26;20003;-40
2024/04/09 07:46:48;;;;;;;1.88;1.58;;;18.10;76.00;;;;;;5483423;26;19998;-40
2024/04/09 07:49:15;;;;;;;3.97;1.60;;;18.10;76.00;;;;;;5465637;26;19994;-40
2024/04/09 07:51:41;;;;;;;3.50;1.63;;;18.10;76.00;;;;;;5483735;25;19998;-40
2024/04/09 07:54:07;;;;;;;2.15;1.30;;;18.10;75.90;;;;;;5481130;26;20010;-40
2024/04/09 07:56:33;;;;;;;2.08;1.48;;;18.10;75.90;;;;;;5481463;26;19998;-41
2024/04/09 07:58:59;;;;;;;1.52;1.20;;;18.10;76.00;;;;;;5477534;26;20026;-41
2024/04/09 08:01:25;;;;;;;2.22;1.40;;;18.10;76.00;;;;;;5485763;26;20002;-41
2024/04/09 08:03:51;;;;;;;2.80;1.40;;;18.00;75.90;;;;;;5482227;26;20012;-41
2024/04/09 08:06:17;;;;;;;2.10;1.30;;;18.00;75.90;;;;;;5479364;26;20006;-40
2024/04/09 08:08:43;;;;;;;2.22;1.17;;;18.00;75.90;;;;;;5472593;26;19995;-39
2024/04/09 08:11:09;;;;;;;1.75;1.10;;;18.00;75.90;;;;;;5472870;26;20144;-41
2024/04/09 08:13:35;;;;;;;2.22;1.20;;;18.10;76.00;;;;;;5489408;26;20013;-40
2024/04/09 08:16:01;;;;;;;2.35;1.20;;;18.10;75.90;;;;;;5485039;25;19994;-41
2024/04/09 08:18:27;;;;;;;1.73;1.10;;;18.00;75.90;;;;;;5476938;26;20018;-41
2024/04/09 08:20:53;;;;;;;2.40;1.08;;;18.00;75.80;;;;;;5486617;26;20007;-41
2024/04/09 08:23:19;;;;;;;2.70;1.20;;;18.00;75.70;;;;;;5481213;26;20037;-42
2024/04/09 08:25:45;;;;;;;3.42;1.13;;;18.00;75.70;;;;;;5486593;26;20006;-41
2024/04/09 08:28:11;;;;;;;2.17;1.33;;;18.00;75.70;;;;;;5484253;25;20006;-38
2024/04/09 08:30:37;;;;;;;2.33;1.10;;;18.00;75.70;;;;;;5486627;26;19990;-39
2024/04/09 08:33:05;;;;;;;3.10;1.10;;;18.10;75.60;;;;;;5491659;26;20016;-40
2024/04/09 08:35:31;;;;;;;3.15;1.30;;;18.00;75.60;;;;;;5484184;26;20006;-36
2024/04/09 08:37:56;;;;;;;2.65;1.30;;;18.00;75.60;;;;;;5480481;26;20016;-36
2024/04/09 08:40:22;;;;;;;2.70;1.20;;;18.00;75.50;;;;;;5488247;26;19997;-37
2024/04/09 08:42:54;;;;;;;2.85;1.20;;;18.00;75.50;;;;;;5491865;26;19998;-35
2024/04/09 08:45:23;;;;;;;2.70;1.10;;;18.00;75.40;;;;;;5478646;26;20007;-36
2024/04/09 08:47:50;;;;;;;2.60;1.10;;;18.00;75.40;;;;;;5484121;26;20559;-35
2024/04/09 08:50:16;;;;;;;2.13;1.20;;;18.00;75.40;;;;;;5493724;26;19998;-35
2024/04/09 08:52:43;;;;;;;2.65;1.00;;;18.00;75.30;;;;;;5481019;26;20125;-35
2024/04/09 08:55:09;;;;;;;1.55;1.00;;;18.00;75.30;;;;;;5493976;26;20018;-35
2024/04/09 08:57:36;;;;;;;2.17;1.20;;;18.00;75.30;;;;;;5478478;26;20450;-40
2024/04/09 09:00:04;;;;;;;2.20;1.13;;;18.00;75.20;;;;;;5493636;26;19998;-37
2024/04/09 09:02:30;;;;;;;2.50;1.15;;;18.00;75.20;;;;;;5488291;26;20043;-37
2024/04/09 09:04:56;;;;;;;1.85;1.00;;;18.00;75.10;;;;;;5494086;26;20398;-37
2024/04/09 09:07:22;;;;;;;1.65;1.00;;;18.00;75.10;;;;;;5488010;26;20034;-37
2024/04/09 09:09:49;;;;;;;1.65;1.15;;;18.00;75.70;;;;;;5478778;26;20027;-37
2024/04/09 09:12:16;;;;;;;1.38;1.00;;;18.10;75.10;;;;;;5473840;26;20018;-37
2024/04/09 09:14:56;;;;;;;2.25;1.30;;;18.10;75.10;;;;;;5491372;26;20010;-37
2024/04/09 09:17:22;;;;;;;2.85;1.20;;;18.10;75.00;;;;;;5476874;26;19994;-37
2024/04/09 09:20:09;;;;;;;2.53;1.15;;;18.10;74.90;;;;;;5484212;26;19998;-37
2024/04/09 09:22:42;;;;;;;1.42;1.00;;;18.10;74.90;;;;;;5477766;26;19998;-37
2024/04/09 09:25:15;;;;;;;1.67;1.00;;;18.10;74.90;;;;;;5481792;26;20025;-37
2024/04/09 09:28:01;;;;;;;2.38;1.25;;;18.10;74.90;;;;;;5487023;26;20008;-37
2024/04/09 09:30:26;;;;;;;2.47;1.10;;;18.10;74.80;;;;;;5490622;26;20005;-37
2024/04/09 09:32:55;;;;;;;1.52;1.13;;;18.20;74.80;;;;;;5484820;26;20003;-37
2024/04/09 09:35:20;;;;;;;2.17;1.20;;;18.20;74.80;;;;;;5481170;26;20032;-37
2024/04/09 09:37:51;;;;;;;2.40;1.30;;;18.20;74.70;;;;;;5463498;26;20004;-37
2024/04/09 09:40:17;;;;;;;3.08;1.10;;;18.30;74.80;;;;;;5486966;26;20619;-37
2024/04/09 09:42:47;;;;;;;1.92;1.10;;;18.20;74.70;;;;;;5493241;26;20002;-37
2024/04/09 09:45:14;;;;;;;2.17;1.10;;;18.30;74.60;;;;;;5481467;26;20030;-37
2024/04/09 09:47:43;;;;;;;2.25;0.95;;;18.30;74.60;;;;;;5485937;26;19998;-37
2024/04/09 09:50:11;;;;;;;1.85;0.93;;;18.30;75.10;;;;;;5494520;26;20371;-36
2024/04/09 09:52:40;;;;;;;3.05;1.20;;;18.30;74.50;;;;;;5487163;26;20001;-37
2024/04/09 09:55:07;;;;;;;1.42;0.82;;;18.40;74.50;;;;;;5483655;26;20036;-37
2024/04/09 09:57:34;;;;;;;1.88;1.27;;;18.40;74.40;;;;;;5473835;26;19998;-37
2024/04/09 10:00:09;;;;;;;2.40;1.00;;;18.40;74.30;;;;;;5484564;26;20051;-37
2024/04/09 10:02:37;;;;;;;2.00;1.30;;;18.50;74.30;;;;;;5491418;26;20009;-37
2024/04/09 10:05:04;;;;;;;1.83;1.10;;;18.50;74.20;;;;;;5485147;26;20034;-37
2024/04/09 10:07:31;;;;;;;3.17;1.02;;;18.50;74.10;;;;;;5480816;26;20430;-37
2024/04/09 10:09:57;;;;;;;2.13;1.02;;;18.50;74.10;;;;;;5467925;26;20003;-36
2024/04/09 10:12:30;;;;;;;3.50;1.05;;;18.60;74.00;;;;;;5493293;26;20043;-37
2024/04/09 10:15:10;;;;;;;2.97;1.08;;;18.60;74.00;;;;;;5454765;26;20609;-37
2024/04/09 10:17:45;;;;;;;1.63;1.00;;;18.60;73.90;;;;;;5469962;26;20377;-37
2024/04/09 10:20:17;;;;;;;;;;;18.70;73.90;;;;;;5485869;26;20013;-38
2024/04/09 10:22:44;;;;;;;2.63;1.00;;;18.60;73.90;;;;;;5491352;26;19924;-38
2024/04/09 10:25:37;;;;;;;2.80;1.23;;;18.70;73.90;;;;;;5493760;26;20054;-37
2024/04/09 10:28:10;;;;;;;2.80;0.90;;;18.60;73.80;;;;;;5473607;26;20417;-37
2024/04/09 10:30:37;;;;;;;2.45;0.90;;;18.70;73.90;;;;;;5487621;26;20030;-37
2024/04/09 10:33:07;;;;;;;3.05;1.10;;;18.70;73.80;;;;;;5484457;26;20431;-37
2024/04/09 10:35:33;;;;;;;2.38;0.90;;;18.70;73.80;;;;;;5480673;26;20037;-37
2024/04/09 10:38:05;;;;;;;3.58;0.90;;;18.70;73.80;;;;;;5487502;26;20039;-37
2024/04/09 10:40:33;;;;;;;2.22;0.88;;;18.80;73.80;;;;;;5487274;26;20008;-38
2024/04/09 10:43:02;;;;;;;2.33;1.05;;;18.80;73.70;;;;;;5482850;26;20066;-37
2024/04/09 10:45:29;;;;;;;2.72;0.90;;;18.80;73.70;;;;;;5478751;26;20009;-38
2024/04/09 10:47:55;;;;;;;2.63;1.00;;;18.80;73.60;;;;;;5487717;26;19998;-37
2024/04/09 10:50:21;;;;;;;1.52;0.80;;;18.80;73.60;;;;;;5479350;26;20018;-38
2024/04/09 10:52:47;;;;;;;2.10;1.00;;;18.90;73.50;;;;;;5485040;26;19994;-36
2024/04/09 10:55:14;;;;;;;1.63;0.90;;;18.90;73.40;;;;;;5481567;26;20013;-37
2024/04/09 10:57:41;;;;;;;3.28;1.15;;;18.90;73.40;;;;;;5474824;26;20005;-37
2024/04/09 11:00:08;;;;;;;1.90;0.90;;;18.90;73.30;;;;;;5488701;26;20349;-37
2024/04/09 11:02:35;;;;;;;2.70;1.00;;;18.90;73.30;;;;;;5477717;26;20018;-37
2024/04/09 11:05:05;;;;;;;2.42;1.00;;;18.90;73.10;;;;;;5485672;26;20010;-37
2024/04/09 11:07:41;;;;;;;1.17;0.90;;;19.00;73.10;;;;;;5479772;26;20005;-38
2024/04/09 11:10:15;;;;;;;2.13;1.00;;;18.90;73.00;;;;;;5466989;26;19998;-39
2024/04/09 11:12:45;;;;;;;2.92;1.00;;;19.00;73.00;;;;;;5493320;26;20030;-37
2024/04/09 11:15:12;;;;;;;1.67;0.90;;;19.00;73.00;;;;;;5456872;26;20079;-37
2024/04/09 11:17:38;;;;;;;2.58;1.00;;;19.00;72.90;;;;;;5489637;26;20160;-37
2024/04/09 11:20:24;;;;;;;0.98;0.80;;;19.00;72.80;;;;;;5458222;26;20003;-38
2024/04/09 11:22:51;;;;;;;2.47;0.93;;;19.10;72.80;;;;;;5490190;26;20013;-37
2024/04/09 11:25:21;;;;;;;1.40;0.88;;;19.00;72.80;;;;;;5491206;26;20009;-37
2024/04/09 11:27:49;;;;;;;0.95;0.70;;;19.10;72.80;;;;;;5475432;26;20027;-37
2024/04/09 11:30:27;;;;;;;1.55;0.80;;;19.10;72.70;;;;;;5491395;26;20012;-38
2024/04/09 11:32:56;;;;;;;1.73;0.88;;;19.10;72.70;;;;;;5487580;26;19999;-38
2024/04/09 11:35:26;;;;;;;3.30;1.00;;;19.10;72.70;;;;;;5456524;26;20003;-37
2024/04/09 11:37:57;;;;;;;1.73;0.75;;;19.10;72.60;;;;;;5518032;25;20004;-37
2024/04/09 11:40:24;;;;;;;1.85;0.80;;;19.10;72.50;;;;;;5462089;26;20299;-42
2024/04/09 11:42:54;;;;;;;1.42;0.90;;;19.10;72.50;;;;;;5461716;26;20013;-37
2024/04/09 11:45:21;;;;;;;2.28;0.95;;;19.10;72.40;;;;;;5480482;26;20018;-38
2024/04/09 11:47:48;;;;;;;1.42;0.70;;;19.20;72.50;;;;;;5479448;26;20002;-37
2024/04/09 11:50:14;;;;;;;1.38;0.80;;;19.20;72.40;;;;;;5489735;26;19998;-37
2024/04/09 11:52:40;;;;;;;2.67;1.00;;;19.10;72.20;;;;;;5482027;26;20013;-36
2024/04/09 11:55:05;;;;;;;2.08;0.75;;;19.20;72.20;;;;;;5476893;26;20000;-36
2024/04/09 11:57:31;;;;;;;1.95;1.00;;;19.20;72.10;;;;;;5474095;26;20011;-37
2024/04/09 11:59:57;;;;;;;2.42;0.77;;;19.20;72.00;;;;;;5449857;26;20053;-37
2024/04/09 12:02:23;;;;;;;2.45;1.10;;;19.20;72.00;;;;;;5470864;26;19994;-37
2024/04/09 12:04:49;;;;;;;2.15;1.00;;;19.30;72.00;;;;;;5475846;26;20010;-37
2024/04/09 12:07:14;;;;;;;1.33;0.88;;;19.30;72.00;;;;;;5470885;26;19990;-37
2024/04/09 12:09:40;;;;;;;3.17;0.95;;;19.30;72.00;;;;;;5484333;26;19994;-37
2024/04/09 12:12:08;;;;;;;1.73;0.80;;;19.30;71.90;;;;;;5480256;26;20330;-37
2024/04/09 12:14:37;;;;;;;2.00;1.00;;;19.30;71.70;;;;;;5484721;26;20346;-44
2024/04/09 12:17:05;;;;;;;1.63;0.80;;;19.40;71.70;;;;;;5480908;26;19998;-37
2024/04/09 12:19:31;;;;;;;2.88;1.20;;;19.40;71.60;;;;;;5485172;25;20009;-37
2024/04/09 12:21:57;;;;;;;1.98;0.70;;;19.40;71.50;;;;;;5456861;26;20002;-38
2024/04/09 12:24:24;;;;;;;2.50;1.00;;;19.40;71.40;;;;;;5487231;26;20024;-37
2024/04/09 12:26:50;;;;;;;1.77;0.82;;;19.40;71.40;;;;;;5483875;25;20086;-41
2024/04/09 12:29:16;;;;;;;1.55;0.90;;;19.40;72.00;;;;;;5487789;26;20006;-37
2024/04/09 12:31:43;;;;;;;1.55;0.93;;;19.40;71.20;;;;;;5501026;26;19998;-36
2024/04/09 12:34:09;;;;;;;3.00;1.20;;;19.50;71.20;;;;;;5504596;26;20014;-37
2024/04/09 12:36:35;;;;;;;1.75;0.77;;;19.50;71.20;;;;;;5485720;26;19990;-35
2024/04/09 12:39:02;;;;;;;1.17;0.85;;;19.50;71.10;;;;;;5486054;26;20079;-37
2024/04/09 12:41:29;;;;;;;3.05;1.20;;;19.50;71.00;;;;;;5486377;26;20002;-35
2024/04/09 12:43:55;;;;;;;1.95;1.13;;;19.50;71.00;;;;;;5495798;26;20077;-35
2024/04/09 12:46:20;;;;;;;0.93;0.70;;;19.50;71.00;;;;;;5483912;26;20474;-35
2024/04/09 12:48:46;;;;;;;1.35;0.85;;;19.60;70.90;;;;;;5462907;26;20018;-36